OOCL Oakland — 3EKJ6 — position and weather

sailwx.info

Track history (hours):
 
Tides and Currents Weather Stations Pressure Air Temp Water Temp Dewpoint Dewpoint Depression Visibility Wind Speed Wind Dir Waves Ship Positions

OOCL Oakland

Last reported at 2016-Jul-19 12:33 UTC. Time now 2016-Jul-24 04:57 UTC.
Position N 22°20' E 114°07'.

Length 280 m; draft 11.6 m.

Type: Ship. MMSI: 372703235.

Date/timePositionNaut miles runAvg speedWind from/ knotsBaromVisibWave heightAir tempDewpointWater temp
2016-Jul-19 12:33N 22°20' E 114°07'1 0.6
2016-Jul-19 11:32N 22°20' E 114°08'0 0.0
2016-Jul-19 08:20N 22°20' E 114°08'0 0.0
2016-Jul-19 04:20N 22°20' E 114°08'0 0.0
2016-Jul-18 22:26N 22°20' E 114°08'0 0.0
2016-Jul-18 21:32N 22°20' E 114°08'1 1.1
2016-Jul-18 20:33N 22°19' E 114°07'15 1.3
2016-Jul-18 09:20N 22°27' E 113°54'0 0.0
2016-Jul-18 08:26N 22°27' E 113°54'0 0.0
2016-Jul-18 07:32N 22°27' E 113°54'0 0.0
2016-Jul-18 05:26N 22°27' E 113°54'0 0.0
2016-Jul-18 03:32N 22°27' E 113°54'0 0.0
2016-Jul-18 02:32N 22°27' E 113°54'0 0.0
2016-Jul-18 01:33N 22°27' E 113°54'10 7.0
2016-Jul-18 00:05N 22°21' E 114°03'154 8.6
2016-Jul-17 06:08N 22°40' E 116°48'2111.1
2016-Jul-17 04:13N 22°49' E 117°09'9318.8
2016-Jul-16 23:16N 23°49' E 118°27'1418.7
2016-Jul-16 22:31N 23°58' E 118°38'47114.2
2016-Jul-15 13:27N 31°15' E 121°55'1313.9
2016-Jul-15 12:33N 31°20' E 121°41'2 1.3
2016-Jul-15 11:20N 31°20' E 121°40'0 0.0
2016-Jul-15 10:08N 31°20' E 121°40'0 0.0
2016-Jul-15 06:26N 31°20' E 121°40'0 0.0
2016-Jul-15 04:32N 31°20' E 121°40'0 0.0
2016-Jul-15 03:23N 31°20' E 121°40'0 0.0
2016-Jul-15 00:08N 31°20' E 121°40'0 0.0
2016-Jul-14 20:32N 31°20' E 121°40'0 0.0
2016-Jul-14 18:08N 31°20' E 121°40'0 0.0
2016-Jul-14 14:14N 31°20' E 121°40'0 0.0
2016-Jul-14 13:32N 31°20' E 121°40'0 0.0
2016-Jul-14 12:18N 31°20' E 121°40'3 3.5
2016-Jul-14 11:34N 31°20' E 121°43'  
2016-Jul-12 01:19N 24°31' E 119°16'4712.5
2016-Jul-11 21:33N 23°59' E 118°39'1312.5
2016-Jul-11 20:33N 23°50' E 118°29'25711.7
2016-Jul-10 22:32N 22°20' E 114°07'1 0.2
2016-Jul-10 19:32N 22°20' E 114°08'0 0.0
2016-Jul-10 17:26N 22°20' E 114°08'0 0.0
2016-Jul-10 16:14N 22°20' E 114°08'0 0.0
2016-Jul-10 14:26N 22°20' E 114°08'0 0.0
2016-Jul-10 13:14N 22°20' E 114°08'0 0.0
2016-Jul-10 12:32N 22°20' E 114°08'0 0.0
2016-Jul-10 11:26N 22°20' E 114°08'0 0.0
2016-Jul-10 10:09N 22°20' E 114°08'3 4.4
2016-Jul-10 09:33N 22°18' E 114°06'32616.3
2016-Jul-09 13:33N 22°32' E 119°58'1717.0
2016-Jul-09 12:33N 22°33' E 120°16'  
Track history (hours):
 
Tides and Currents Weather Stations Pressure Air Temp Water Temp Dewpoint Dewpoint Depression Visibility Wind Speed Wind Dir Waves Ship Positions

OOCL Oakland

Last reported at 2016-Jul-19 12:33 UTC. Time now 2016-Jul-24 04:57 UTC.
Position N 22°20' E 114°07'.

Length 280 m; draft 11.6 m.

Type: Ship. MMSI: 372703235.

Date/timePositionNaut miles runAvg speedWind from/ knotsBaromVisibWave heightAir tempDewpointWater temp
2016-Jul-19 12:33N 22°20' E 114°07'1 0.6
2016-Jul-19 11:32N 22°20' E 114°08'0 0.0
2016-Jul-19 08:20N 22°20' E 114°08'0 0.0
2016-Jul-19 04:20N 22°20' E 114°08'0 0.0
2016-Jul-18 22:26N 22°20' E 114°08'0 0.0
2016-Jul-18 21:32N 22°20' E 114°08'1 1.1
2016-Jul-18 20:33N 22°19' E 114°07'15 1.3
2016-Jul-18 09:20N 22°27' E 113°54'0 0.0
2016-Jul-18 08:26N 22°27' E 113°54'0 0.0
2016-Jul-18 07:32N 22°27' E 113°54'0 0.0
2016-Jul-18 05:26N 22°27' E 113°54'0 0.0
2016-Jul-18 03:32N 22°27' E 113°54'0 0.0
2016-Jul-18 02:32N 22°27' E 113°54'0 0.0
2016-Jul-18 01:33N 22°27' E 113°54'10 7.0
2016-Jul-18 00:05N 22°21' E 114°03'154 8.6
2016-Jul-17 06:08N 22°40' E 116°48'2111.1
2016-Jul-17 04:13N 22°49' E 117°09'9318.8
2016-Jul-16 23:16N 23°49' E 118°27'1418.7
2016-Jul-16 22:31N 23°58' E 118°38'47114.2
2016-Jul-15 13:27N 31°15' E 121°55'1313.9
2016-Jul-15 12:33N 31°20' E 121°41'2 1.3
2016-Jul-15 11:20N 31°20' E 121°40'0 0.0
2016-Jul-15 10:08N 31°20' E 121°40'0 0.0
2016-Jul-15 06:26N 31°20' E 121°40'0 0.0
2016-Jul-15 04:32N 31°20' E 121°40'0 0.0
2016-Jul-15 03:23N 31°20' E 121°40'0 0.0
2016-Jul-15 00:08N 31°20' E 121°40'0 0.0
2016-Jul-14 20:32N 31°20' E 121°40'0 0.0
2016-Jul-14 18:08N 31°20' E 121°40'0 0.0
2016-Jul-14 14:14N 31°20' E 121°40'0 0.0
2016-Jul-14 13:32N 31°20' E 121°40'0 0.0
2016-Jul-14 12:18N 31°20' E 121°40'3 3.5
2016-Jul-14 11:34N 31°20' E 121°43'  
2016-Jul-12 01:19N 24°31' E 119°16'4712.5
2016-Jul-11 21:33N 23°59' E 118°39'1312.5
2016-Jul-11 20:33N 23°50' E 118°29'25711.7
2016-Jul-10 22:32N 22°20' E 114°07'1 0.2
2016-Jul-10 19:32N 22°20' E 114°08'0 0.0
2016-Jul-10 17:26N 22°20' E 114°08'0 0.0
2016-Jul-10 16:14N 22°20' E 114°08'0 0.0
2016-Jul-10 14:26N 22°20' E 114°08'0 0.0
2016-Jul-10 13:14N 22°20' E 114°08'0 0.0
2016-Jul-10 12:32N 22°20' E 114°08'0 0.0
2016-Jul-10 11:26N 22°20' E 114°08'0 0.0
2016-Jul-10 10:09N 22°20' E 114°08'3 4.4
2016-Jul-10 09:33N 22°18' E 114°06'32616.3
2016-Jul-09 13:33N 22°32' E 119°58'1717.0
2016-Jul-09 12:33N 22°33' E 120°16'  

Dump ship's entire track history